sensor_id;sensor_type;location;lat;lon;timestamp;pressure;altitude;pressure_sealevel;temperature;humidity
8575;BME280;4325;42.520;27.448;2024-01-11T00:00:45;102374.22;;;-2.96;84.88
8575;BME280;4325;42.520;27.448;2024-01-11T00:03:14;102357.88;;;-2.93;84.49
8575;BME280;4325;42.520;27.448;2024-01-11T00:05:41;102364.50;;;-2.87;84.28
8575;BME280;4325;42.520;27.448;2024-01-11T00:08:08;102363.47;;;-2.86;85.63
8575;BME280;4325;42.520;27.448;2024-01-11T00:10:37;102364.31;;;-2.86;86.38
8575;BME280;4325;42.520;27.448;2024-01-11T00:13:04;102366.00;;;-2.85;87.51
8575;BME280;4325;42.520;27.448;2024-01-11T00:15:31;102362.63;;;-2.87;86.41
8575;BME280;4325;42.520;27.448;2024-01-11T00:17:58;102366.00;;;-2.85;83.74
8575;BME280;4325;42.520;27.448;2024-01-11T00:20:27;102356.97;;;-2.84;82.03
8575;BME280;4325;42.520;27.448;2024-01-11T00:22:54;102363.19;;;-2.83;79.80
8575;BME280;4325;42.520;27.448;2024-01-11T00:25:21;102363.03;;;-2.82;78.41
8575;BME280;4325;42.520;27.448;2024-01-11T00:27:49;102361.06;;;-2.80;76.00
8575;BME280;4325;42.520;27.448;2024-01-11T00:30:16;102363.44;;;-2.77;74.53
8575;BME280;4325;42.520;27.448;2024-01-11T00:32:43;102355.81;;;-2.72;73.91
8575;BME280;4325;42.520;27.448;2024-01-11T00:35:10;102356.84;;;-2.73;72.05
8575;BME280;4325;42.520;27.448;2024-01-11T00:37:38;102355.13;;;-2.74;72.35
8575;BME280;4325;42.520;27.448;2024-01-11T00:40:06;102357.81;;;-2.74;74.06
8575;BME280;4325;42.520;27.448;2024-01-11T00:42:33;102361.22;;;-2.81;75.23
8575;BME280;4325;42.520;27.448;2024-01-11T00:45:01;102357.13;;;-2.85;76.67
8575;BME280;4325;42.520;27.448;2024-01-11T00:47:28;102360.63;;;-2.85;78.58
8575;BME280;4325;42.520;27.448;2024-01-11T00:49:55;102366.84;;;-2.84;80.40
8575;BME280;4325;42.520;27.448;2024-01-11T00:52:22;102351.91;;;-2.87;80.62
8575;BME280;4325;42.520;27.448;2024-01-11T00:54:50;102370.25;;;-2.92;77.21
8575;BME280;4325;42.520;27.448;2024-01-11T00:57:17;102358.72;;;-3.02;76.86
8575;BME280;4325;42.520;27.448;2024-01-11T00:59:44;102370.72;;;-3.15;76.64
8575;BME280;4325;42.520;27.448;2024-01-11T01:02:11;102360.72;;;-3.23;77.73
8575;BME280;4325;42.520;27.448;2024-01-11T01:04:38;102369.47;;;-3.30;79.23
8575;BME280;4325;42.520;27.448;2024-01-11T01:07:06;102368.06;;;-3.44;80.93
8575;BME280;4325;42.520;27.448;2024-01-11T01:09:33;102364.53;;;-3.45;84.09
8575;BME280;4325;42.520;27.448;2024-01-11T01:12:01;102365.38;;;-3.44;84.11
8575;BME280;4325;42.520;27.448;2024-01-11T01:14:28;102363.00;;;-3.47;84.92
8575;BME280;4325;42.520;27.448;2024-01-11T01:16:56;102361.59;;;-3.51;86.19
8575;BME280;4325;42.520;27.448;2024-01-11T01:19:23;102352.00;;;-3.54;85.88
8575;BME280;4325;42.520;27.448;2024-01-11T01:21:50;102349.44;;;-3.55;87.02
8575;BME280;4325;42.520;27.448;2024-01-11T01:24:17;102353.13;;;-3.56;87.64
8575;BME280;4325;42.520;27.448;2024-01-11T01:26:44;102346.06;;;-3.57;87.73
8575;BME280;4325;42.520;27.448;2024-01-11T01:29:13;102342.69;;;-3.59;88.93
8575;BME280;4325;42.520;27.448;2024-01-11T01:31:41;102339.31;;;-3.61;90.58
8575;BME280;4325;42.520;27.448;2024-01-11T01:34:08;102338.03;;;-3.57;91.83
8575;BME280;4325;42.520;27.448;2024-01-11T01:36:35;102332.16;;;-3.61;94.58
8575;BME280;4325;42.520;27.448;2024-01-11T01:39:02;102332.25;;;-3.62;96.62
8575;BME280;4325;42.520;27.448;2024-01-11T01:41:29;102320.16;;;-3.57;98.62
8575;BME280;4325;42.520;27.448;2024-01-11T01:43:56;102313.25;;;-3.59;98.37
8575;BME280;4325;42.520;27.448;2024-01-11T01:46:25;102305.22;;;-3.59;98.81
8575;BME280;4325;42.520;27.448;2024-01-11T01:48:54;102306.63;;;-3.55;98.34
8575;BME280;4325;42.520;27.448;2024-01-11T01:51:21;102302.69;;;-3.51;97.15
8575;BME280;4325;42.520;27.448;2024-01-11T01:53:49;102311.41;;;-3.49;95.93
8575;BME280;4325;42.520;27.448;2024-01-11T01:56:19;102310.28;;;-3.47;94.55
8575;BME280;4325;42.520;27.448;2024-01-11T01:58:47;102307.19;;;-3.42;94.39
8575;BME280;4325;42.520;27.448;2024-01-11T02:01:17;102305.78;;;-3.46;93.42
8575;BME280;4325;42.520;27.448;2024-01-11T02:03:49;102306.91;;;-3.39;94.46
8575;BME280;4325;42.520;27.448;2024-01-11T02:06:17;102305.78;;;-3.37;93.45
8575;BME280;4325;42.520;27.448;2024-01-11T02:08:46;102308.47;;;-3.46;93.30
8575;BME280;4325;42.520;27.448;2024-01-11T02:11:13;102303.81;;;-3.54;95.62
8575;BME280;4325;42.520;27.448;2024-01-11T02:13:40;102297.88;;;-3.57;96.77
8575;BME280;4325;42.520;27.448;2024-01-11T02:16:08;102292.53;;;-3.57;97.26
8575;BME280;4325;42.520;27.448;2024-01-11T02:18:35;102290.56;;;-3.55;98.01
8575;BME280;4325;42.520;27.448;2024-01-11T02:21:06;102299.00;;;-3.50;98.77
8575;BME280;4325;42.520;27.448;2024-01-11T02:23:36;102293.94;;;-3.44;98.28
8575;BME280;4325;42.520;27.448;2024-01-11T02:26:08;102292.50;;;-3.38;94.91
8575;BME280;4325;42.520;27.448;2024-01-11T02:28:35;102295.19;;;-3.38;92.65
8575;BME280;4325;42.520;27.448;2024-01-11T02:31:02;102276.44;;;-3.38;88.65
8575;BME280;4325;42.520;27.448;2024-01-11T02:33:30;102279.00;;;-3.37;88.80
8575;BME280;4325;42.520;27.448;2024-01-11T02:35:57;102273.75;;;-3.38;87.98
8575;BME280;4325;42.520;27.448;2024-01-11T02:38:24;102275.91;;;-3.42;87.44
8575;BME280;4325;42.520;27.448;2024-01-11T02:40:51;102272.53;;;-3.44;87.04
8575;BME280;4325;42.520;27.448;2024-01-11T02:43:19;102273.94;;;-3.49;85.39
8575;BME280;4325;42.520;27.448;2024-01-11T02:45:46;102275.34;;;-3.55;86.37
8575;BME280;4325;42.520;27.448;2024-01-11T02:48:13;102270.44;;;-3.69;88.15
8575;BME280;4325;42.520;27.448;2024-01-11T02:50:40;102278.19;;;-3.75;90.36
8575;BME280;4325;42.520;27.448;2024-01-11T02:53:07;102263.69;;;-3.82;93.30
8575;BME280;4325;42.520;27.448;2024-01-11T02:55:34;102259.31;;;-3.83;96.06
8575;BME280;4325;42.520;27.448;2024-01-11T02:58:01;102260.28;;;-3.84;97.06
8575;BME280;4325;42.520;27.448;2024-01-11T03:00:30;102249.47;;;-3.83;98.20
8575;BME280;4325;42.520;27.448;2024-01-11T03:02:57;102247.91;;;-3.85;100.00
8575;BME280;4325;42.520;27.448;2024-01-11T03:05:24;102244.81;;;-3.90;100.00
8575;BME280;4325;42.520;27.448;2024-01-11T03:07:51;102241.16;;;-3.89;100.00
8575;BME280;4325;42.520;27.448;2024-01-11T03:10:18;102244.38;;;-3.86;100.00
8575;BME280;4325;42.520;27.448;2024-01-11T03:12:45;102243.25;;;-3.83;100.00
8575;BME280;4325;42.520;27.448;2024-01-11T03:15:14;102234.53;;;-3.85;100.00
8575;BME280;4325;42.520;27.448;2024-01-11T03:17:43;102234.97;;;-3.80;100.00
8575;BME280;4325;42.520;27.448;2024-01-11T03:20:11;102237.63;;;-3.80;100.00
8575;BME280;4325;42.520;27.448;2024-01-11T03:22:45;102230.31;;;-3.78;100.00
8575;BME280;4325;42.520;27.448;2024-01-11T03:25:12;102246.34;;;-3.78;100.00
8575;BME280;4325;42.520;27.448;2024-01-11T03:27:39;102231.69;;;-3.74;100.00
8575;BME280;4325;42.520;27.448;2024-01-11T03:30:07;102231.69;;;-3.74;100.00
8575;BME280;4325;42.520;27.448;2024-01-11T03:32:34;102217.63;;;-3.76;100.00
8575;BME280;4325;42.520;27.448;2024-01-11T03:35:03;102231.69;;;-3.74;98.65
8575;BME280;4325;42.520;27.448;2024-01-11T03:37:30;102223.09;;;-3.68;96.15
8575;BME280;4325;42.520;27.448;2024-01-11T03:39:57;102218.19;;;-3.63;92.09
8575;BME280;4325;42.520;27.448;2024-01-11T03:42:24;102223.34;;;-3.52;88.60
8575;BME280;4325;42.520;27.448;2024-01-11T03:44:51;102216.44;;;-3.45;84.95
8575;BME280;4325;42.520;27.448;2024-01-11T03:47:18;102208.53;;;-3.37;89.93
8575;BME280;4325;42.520;27.448;2024-01-11T03:49:45;102207.97;;;-3.31;88.04
8575;BME280;4325;42.520;27.448;2024-01-11T03:52:14;102213.16;;;-3.29;87.84
8575;BME280;4325;42.520;27.448;2024-01-11T03:54:41;102213.16;;;-3.29;88.42
8575;BME280;4325;42.520;27.448;2024-01-11T03:57:08;102213.31;;;-3.31;90.05
8575;BME280;4325;42.520;27.448;2024-01-11T03:59:35;102213.59;;;-3.34;91.32
8575;BME280;4325;42.520;27.448;2024-01-11T04:02:02;102202.06;;;-3.44;92.96
8575;BME280;4325;42.520;27.448;2024-01-11T04:04:29;102210.25;;;-3.55;92.70
8575;BME280;4325;42.520;27.448;2024-01-11T04:06:57;102200.69;;;-3.67;93.71
8575;BME280;4325;42.520;27.448;2024-01-11T04:09:25;102197.22;;;-3.77;95.38
8575;BME280;4325;42.520;27.448;2024-01-11T04:11:52;102204.81;;;-3.73;95.40
8575;BME280;4325;42.520;27.448;2024-01-11T04:14:19;102195.94;;;-3.73;95.66
8575;BME280;4325;42.520;27.448;2024-01-11T04:16:46;102189.44;;;-3.71;98.06
8575;BME280;4325;42.520;27.448;2024-01-11T04:19:13;102188.59;;;-3.71;100.00
8575;BME280;4325;42.520;27.448;2024-01-11T04:21:40;102188.31;;;-3.68;100.00
8575;BME280;4325;42.520;27.448;2024-01-11T04:24:07;102179.59;;;-3.70;100.00
8575;BME280;4325;42.520;27.448;2024-01-11T04:26:36;102180.56;;;-3.71;100.00
8575;BME280;4325;42.520;27.448;2024-01-11T04:29:03;102181.53;;;-3.72;100.00
8575;BME280;4325;42.520;27.448;2024-01-11T04:31:30;102179.31;;;-3.77;100.00
8575;BME280;4325;42.520;27.448;2024-01-11T04:33:57;102185.22;;;-3.73;100.00
8575;BME280;4325;42.520;27.448;2024-01-11T04:36:24;102186.63;;;-3.69;100.00
8575;BME280;4325;42.520;27.448;2024-01-11T04:38:51;102182.56;;;-3.73;100.00
8575;BME280;4325;42.520;27.448;2024-01-11T04:41:19;102186.91;;;-3.72;100.00
8575;BME280;4325;42.520;27.448;2024-01-11T04:43:47;102178.59;;;-3.69;100.00
8575;BME280;4325;42.520;27.448;2024-01-11T04:46:15;102175.91;;;-3.69;100.00
8575;BME280;4325;42.520;27.448;2024-01-11T04:48:43;102173.94;;;-3.67;100.00
8575;BME280;4325;42.520;27.448;2024-01-11T04:51:10;102174.34;;;-3.62;100.00
8575;BME280;4325;42.520;27.448;2024-01-11T04:53:38;102174.66;;;-3.65;100.00
8575;BME280;4325;42.520;27.448;2024-01-11T04:56:06;102165.78;;;-3.66;100.00
8575;BME280;4325;42.520;27.448;2024-01-11T04:58:34;102170.97;;;-3.64;100.00
8575;BME280;4325;42.520;27.448;2024-01-11T05:03:31;102170.00;;;-3.63;100.00
8575;BME280;4325;42.520;27.448;2024-01-11T05:05:58;102167.72;;;-3.58;100.00
8575;BME280;4325;42.520;27.448;2024-01-11T05:08:25;102171.66;;;-3.62;100.00
8575;BME280;4325;42.520;27.448;2024-01-11T05:10:53;102170.25;;;-3.57;100.00
8575;BME280;4325;42.520;27.448;2024-01-11T05:13:20;102175.31;;;-3.54;100.00
8575;BME280;4325;42.520;27.448;2024-01-11T05:15:47;102179.53;;;-3.51;100.00
8575;BME280;4325;42.520;27.448;2024-01-11T05:18:15;102180.94;;;-3.47;100.00
8575;BME280;4325;42.520;27.448;2024-01-11T05:20:42;102171.94;;;-3.46;100.00
8575;BME280;4325;42.520;27.448;2024-01-11T05:23:10;102173.03;;;-3.39;100.00
8575;BME280;4325;42.520;27.448;2024-01-11T05:25:37;102165.84;;;-3.39;100.00
8575;BME280;4325;42.520;27.448;2024-01-11T05:28:04;102159.88;;;-3.33;100.00
8575;BME280;4325;42.520;27.448;2024-01-11T05:30:31;102163.13;;;-3.29;100.00
8575;BME280;4325;42.520;27.448;2024-01-11T05:32:58;102152.00;;;-3.34;100.00
8575;BME280;4325;42.520;27.448;2024-01-11T05:35:27;102150.72;;;-3.30;99.31
8575;BME280;4325;42.520;27.448;2024-01-11T05:37:54;102148.44;;;-3.25;98.89
8575;BME280;4325;42.520;27.448;2024-01-11T05:40:21;102149.34;;;-3.34;96.36
8575;BME280;4325;42.520;27.448;2024-01-11T05:42:48;102148.47;;;-3.35;96.96
8575;BME280;4325;42.520;27.448;2024-01-11T05:45:15;102141.69;;;-3.29;97.83
8575;BME280;4325;42.520;27.448;2024-01-11T05:47:43;102145.06;;;-3.27;95.39
8575;BME280;4325;42.520;27.448;2024-01-11T05:50:10;102138.00;;;-3.28;93.01
8575;BME280;4325;42.520;27.448;2024-01-11T05:52:39;102132.97;;;-3.31;91.77
8575;BME280;4325;42.520;27.448;2024-01-11T05:55:07;102137.59;;;-3.33;90.65
8575;BME280;4325;42.520;27.448;2024-01-11T05:57:34;102137.31;;;-3.30;90.68
8575;BME280;4325;42.520;27.448;2024-01-11T06:00:01;102143.38;;;-3.28;91.78
8575;BME280;4325;42.520;27.448;2024-01-11T06:02:28;102150.13;;;-3.24;92.23
8575;BME280;4325;42.520;27.448;2024-01-11T06:04:57;102144.78;;;-3.24;92.78
8575;BME280;4325;42.520;27.448;2024-01-11T06:07:24;102141.22;;;-3.15;94.73
8575;BME280;4325;42.520;27.448;2024-01-11T06:09:52;102137.91;;;-3.09;95.59
8575;BME280;4325;42.520;27.448;2024-01-11T06:12:19;102145.78;;;-2.98;97.26
8575;BME280;4325;42.520;27.448;2024-01-11T06:14:46;102142.53;;;-2.74;98.25
8575;BME280;4325;42.520;27.448;2024-01-11T06:17:14;102143.88;;;-2.70;96.97
8575;BME280;4325;42.520;27.448;2024-01-11T06:19:41;102151.09;;;-2.53;95.74
8575;BME280;4325;42.520;27.448;2024-01-11T06:22:08;102150.19;;;-2.26;94.69
8575;BME280;4325;42.520;27.448;2024-01-11T06:24:35;102144.13;;;-1.93;89.92
8575;BME280;4325;42.520;27.448;2024-01-11T06:27:04;102157.09;;;-1.37;85.57
8575;BME280;4325;42.520;27.448;2024-01-11T06:29:31;102134.81;;;-0.80;80.64
8575;BME280;4325;42.520;27.448;2024-01-11T06:31:58;102127.88;;;-0.08;76.11
8575;BME280;4325;42.520;27.448;2024-01-11T06:34:25;102137.97;;;-0.18;70.79
8575;BME280;4325;42.520;27.448;2024-01-11T06:36:53;102132.56;;;-0.26;70.41
8575;BME280;4325;42.520;27.448;2024-01-11T06:39:20;102131.03;;;-0.05;70.40
8575;BME280;4325;42.520;27.448;2024-01-11T06:41:47;102130.69;;;0.15;66.29
8575;BME280;4325;42.520;27.448;2024-01-11T06:44:16;102128.00;;;0.39;64.90
8575;BME280;4325;42.520;27.448;2024-01-11T06:46:43;102124.25;;;0.56;62.72
8575;BME280;4325;42.520;27.448;2024-01-11T06:49:10;102119.47;;;0.74;62.33
8575;BME280;4325;42.520;27.448;2024-01-11T06:51:37;102115.59;;;0.77;60.48
8575;BME280;4325;42.520;27.448;2024-01-11T06:54:04;102122.88;;;1.07;58.49
8575;BME280;4325;42.520;27.448;2024-01-11T06:56:31;102129.31;;;1.82;57.29
8575;BME280;4325;42.520;27.448;2024-01-11T06:58:58;102128.59;;;1.88;54.66
8575;BME280;4325;42.520;27.448;2024-01-11T07:01:27;102117.75;;;2.62;54.16
8575;BME280;4325;42.520;27.448;2024-01-11T07:03:54;102128.69;;;3.70;50.61
8575;BME280;4325;42.520;27.448;2024-01-11T07:06:21;102119.59;;;4.88;47.35
8575;BME280;4325;42.520;27.448;2024-01-11T07:08:48;102129.44;;;4.06;45.50
8575;BME280;4325;42.520;27.448;2024-01-11T07:11:15;102136.25;;;3.24;47.25
8575;BME280;4325;42.520;27.448;2024-01-11T07:13:42;102137.78;;;2.83;48.74
8575;BME280;4325;42.520;27.448;2024-01-11T07:16:09;102147.88;;;2.59;48.87
8575;BME280;4325;42.520;27.448;2024-01-11T07:18:38;102149.41;;;2.39;49.14
8575;BME280;4325;42.520;27.448;2024-01-11T07:21:06;102148.56;;;2.39;49.86
8575;BME280;4325;42.520;27.448;2024-01-11T07:23:33;102145.34;;;2.43;50.35
8575;BME280;4325;42.520;27.448;2024-01-11T07:26:00;102144.53;;;2.20;49.88
8575;BME280;4325;42.520;27.448;2024-01-11T07:28:28;102139.06;;;1.38;51.21
8575;BME280;4325;42.520;27.448;2024-01-11T07:30:55;102130.09;;;1.14;53.15
8575;BME280;4325;42.520;27.448;2024-01-11T07:33:22;102134.81;;;1.43;53.58
8575;BME280;4325;42.520;27.448;2024-01-11T07:35:50;102133.78;;;1.75;52.79
8575;BME280;4325;42.520;27.448;2024-01-11T07:38:17;102123.66;;;1.69;52.12
8575;BME280;4325;42.520;27.448;2024-01-11T07:40:44;102123.66;;;1.69;52.05
8575;BME280;4325;42.520;27.448;2024-01-11T07:43:12;102110.56;;;2.03;52.38
8575;BME280;4325;42.520;27.448;2024-01-11T07:45:39;102109.94;;;2.16;51.46
8575;BME280;4325;42.520;27.448;2024-01-11T07:48:06;102097.13;;;2.61;50.49
8575;BME280;4325;42.520;27.448;2024-01-11T07:50:34;102097.41;;;2.96;49.30
8575;BME280;4325;42.520;27.448;2024-01-11T07:53:03;102095.50;;;3.11;49.83
8575;BME280;4325;42.520;27.448;2024-01-11T07:55:31;102099.84;;;3.26;48.62
8575;BME280;4325;42.520;27.448;2024-01-11T07:57:58;102098.44;;;2.65;48.65
8575;BME280;4325;42.520;27.448;2024-01-11T08:00:25;102094.16;;;2.42;49.03
8575;BME280;4325;42.520;27.448;2024-01-11T08:02:52;102084.91;;;2.36;49.66
8575;BME280;4325;42.520;27.448;2024-01-11T08:05:20;102088.66;;;2.64;49.67
8575;BME280;4325;42.520;27.448;2024-01-11T08:07:47;102092.47;;;3.35;49.84
8575;BME280;4325;42.520;27.448;2024-01-11T08:10:15;102098.78;;;3.42;48.88
8575;BME280;4325;42.520;27.448;2024-01-11T08:12:42;102087.56;;;4.09;48.50
8575;BME280;4325;42.520;27.448;2024-01-11T08:15:09;102085.09;;;4.48;46.83
8575;BME280;4325;42.520;27.448;2024-01-11T08:17:38;102091.47;;;3.57;48.79
8575;BME280;4325;42.520;27.448;2024-01-11T08:20:06;102093.06;;;3.16;50.01
8575;BME280;4325;42.520;27.448;2024-01-11T08:22:34;102080.84;;;3.20;50.62
8575;BME280;4325;42.520;27.448;2024-01-11T08:25:01;102072.06;;;3.18;50.64
8575;BME280;4325;42.520;27.448;2024-01-11T08:27:31;102070.81;;;2.99;50.73
8575;BME280;4325;42.520;27.448;2024-01-11T08:29:59;102069.91;;;3.70;51.03
8575;BME280;4325;42.520;27.448;2024-01-11T08:32:26;102064.75;;;4.65;48.74
8575;BME280;4325;42.520;27.448;2024-01-11T08:34:54;102071.84;;;5.74;45.24
8575;BME280;4325;42.520;27.448;2024-01-11T08:37:21;102064.03;;;9.11;40.73
8575;BME280;4325;42.520;27.448;2024-01-11T08:39:48;102058.28;;;12.62;33.54
8575;BME280;4325;42.520;27.448;2024-01-11T08:42:15;102062.22;;;14.43;28.67
8575;BME280;4325;42.520;27.448;2024-01-11T08:44:44;102057.38;;;13.38;28.78
8575;BME280;4325;42.520;27.448;2024-01-11T08:47:12;102049.16;;;15.37;27.83
8575;BME280;4325;42.520;27.448;2024-01-11T08:49:40;102039.34;;;17.26;25.10
8575;BME280;4325;42.520;27.448;2024-01-11T08:52:07;102049.34;;;18.67;22.38
8575;BME280;4325;42.520;27.448;2024-01-11T08:54:34;102049.25;;;17.86;21.92
8575;BME280;4325;42.520;27.448;2024-01-11T08:57:01;102036.06;;;17.14;22.64
8575;BME280;4325;42.520;27.448;2024-01-11T08:59:29;102026.16;;;19.99;21.77
8575;BME280;4325;42.520;27.448;2024-01-11T09:01:57;102017.56;;;19.82;19.91
8575;BME280;4325;42.520;27.448;2024-01-11T09:04:24;102019.53;;;17.92;21.47
8575;BME280;4325;42.520;27.448;2024-01-11T09:06:54;102017.00;;;18.58;21.83
8575;BME280;4325;42.520;27.448;2024-01-11T09:09:21;102007.88;;;19.79;21.48
8575;BME280;4325;42.520;27.448;2024-01-11T09:11:48;101999.00;;;21.59;19.84
8575;BME280;4325;42.520;27.448;2024-01-11T09:14:15;101994.69;;;22.72;18.79
8575;BME280;4325;42.520;27.448;2024-01-11T09:16:42;101984.19;;;24.96;17.91
8575;BME280;4325;42.520;27.448;2024-01-11T09:19:12;101978.38;;;25.01;17.87
8575;BME280;4325;42.520;27.448;2024-01-11T09:21:39;101987.56;;;22.58;19.29
8575;BME280;4325;42.520;27.448;2024-01-11T09:24:07;101969.66;;;20.49;20.55
8575;BME280;4325;42.520;27.448;2024-01-11T09:26:34;101967.16;;;21.02;19.93
8575;BME280;4325;42.520;27.448;2024-01-11T09:29:02;101968.06;;;18.67;21.47
8575;BME280;4325;42.520;27.448;2024-01-11T09:31:29;101964.72;;;16.22;23.61
8575;BME280;4325;42.520;27.448;2024-01-11T09:33:56;101936.22;;;14.95;25.48
8575;BME280;4325;42.520;27.448;2024-01-11T09:36:28;101942.38;;;16.03;24.68
8575;BME280;4325;42.520;27.448;2024-01-11T09:38:55;101930.63;;;17.88;22.70
8575;BME280;4325;42.520;27.448;2024-01-11T09:41:22;101917.59;;;18.17;22.21
8575;BME280;4325;42.520;27.448;2024-01-11T09:43:51;101921.69;;;19.65;21.04
8575;BME280;4325;42.520;27.448;2024-01-11T09:46:23;101915.09;;;19.24;20.79
8575;BME280;4325;42.520;27.448;2024-01-11T09:48:51;101900.91;;;17.65;21.28
8575;BME280;4325;42.520;27.448;2024-01-11T09:51:20;101894.59;;;15.17;23.13
8575;BME280;4325;42.520;27.448;2024-01-11T09:53:50;101893.09;;;14.12;24.75
8575;BME280;4325;42.520;27.448;2024-01-11T09:56:18;101890.50;;;13.54;25.67
8575;BME280;4325;42.520;27.448;2024-01-11T09:58:47;101888.91;;;14.00;24.59
8575;BME280;4325;42.520;27.448;2024-01-11T10:01:16;101879.69;;;15.38;24.29
8575;BME280;4325;42.520;27.448;2024-01-11T10:03:44;101868.09;;;15.21;25.46
8575;BME280;4325;42.520;27.448;2024-01-11T10:06:12;101865.88;;;15.94;24.55
8575;BME280;4325;42.520;27.448;2024-01-11T10:08:39;101859.91;;;16.40;24.30
8575;BME280;4325;42.520;27.448;2024-01-11T10:11:07;101857.38;;;17.37;23.57
8575;BME280;4325;42.520;27.448;2024-01-11T10:13:35;101853.47;;;18.48;22.24
8575;BME280;4325;42.520;27.448;2024-01-11T10:16:08;101852.47;;;21.00;20.84
8575;BME280;4325;42.520;27.448;2024-01-11T10:18:35;101849.78;;;21.84;19.20
8575;BME280;4325;42.520;27.448;2024-01-11T10:21:03;101835.13;;;24.52;18.16
8575;BME280;4325;42.520;27.448;2024-01-11T10:23:33;101826.91;;;27.47;14.74
8575;BME280;4325;42.520;27.448;2024-01-11T10:26:00;101826.03;;;28.88;14.15
8575;BME280;4325;42.520;27.448;2024-01-11T10:28:29;101825.66;;;28.54;14.49
8575;BME280;4325;42.520;27.448;2024-01-11T10:30:56;101816.53;;;28.76;13.85
8575;BME280;4325;42.520;27.448;2024-01-11T10:33:24;101820.78;;;29.85;12.66
8575;BME280;4325;42.520;27.448;2024-01-11T10:35:51;101807.28;;;28.95;12.89
8575;BME280;4325;42.520;27.448;2024-01-11T10:38:18;101798.22;;;29.24;12.96
8575;BME280;4325;42.520;27.448;2024-01-11T10:40:45;101799.00;;;25.54;14.95
8575;BME280;4325;42.520;27.448;2024-01-11T10:43:15;101794.91;;;23.60;16.21
8575;BME280;4325;42.520;27.448;2024-01-11T10:45:48;101785.25;;;22.98;17.11
8575;BME280;4325;42.520;27.448;2024-01-11T10:48:21;101782.56;;;24.99;16.26
8575;BME280;4325;42.520;27.448;2024-01-11T10:50:54;101781.25;;;27.70;14.73
8575;BME280;4325;42.520;27.448;2024-01-11T10:53:30;101782.63;;;27.44;14.85
8575;BME280;4325;42.520;27.448;2024-01-11T10:55:59;101784.25;;;25.12;15.53
8575;BME280;4325;42.520;27.448;2024-01-11T10:58:26;101765.50;;;24.92;16.19
8575;BME280;4325;42.520;27.448;2024-01-11T11:00:55;101760.78;;;24.34;16.49
8575;BME280;4325;42.520;27.448;2024-01-11T11:03:26;101765.06;;;22.58;17.49
8575;BME280;4325;42.520;27.448;2024-01-11T11:05:54;101753.34;;;18.49;20.36
8575;BME280;4325;42.520;27.448;2024-01-11T11:08:23;101752.53;;;16.96;22.60
8575;BME280;4325;42.520;27.448;2024-01-11T11:10:55;101755.78;;;16.21;23.49
8575;BME280;4325;42.520;27.448;2024-01-11T11:13:23;101750.03;;;15.33;23.91
8575;BME280;4325;42.520;27.448;2024-01-11T11:15:51;101747.72;;;15.80;23.63
8575;BME280;4325;42.520;27.448;2024-01-11T11:18:20;101741.06;;;17.13;22.18
8575;BME280;4325;42.520;27.448;2024-01-11T11:20:48;101733.47;;;17.52;21.48
8575;BME280;4325;42.520;27.448;2024-01-11T11:23:17;101734.34;;;19.94;19.77
8575;BME280;4325;42.520;27.448;2024-01-11T11:25:46;101725.63;;;22.85;17.93
8575;BME280;4325;42.520;27.448;2024-01-11T11:28:15;101722.81;;;22.43;17.36
8575;BME280;4325;42.520;27.448;2024-01-11T11:30:43;101710.34;;;22.14;17.10
8575;BME280;4325;42.520;27.448;2024-01-11T11:33:15;101716.44;;;21.77;17.68
8575;BME280;4325;42.520;27.448;2024-01-11T11:35:45;101704.72;;;20.03;18.57
8575;BME280;4325;42.520;27.448;2024-01-11T11:38:17;101694.50;;;18.84;19.70
8575;BME280;4325;42.520;27.448;2024-01-11T11:40:47;101687.34;;;18.65;20.52
8575;BME280;4325;42.520;27.448;2024-01-11T11:43:15;101692.81;;;20.38;19.45
8575;BME280;4325;42.520;27.448;2024-01-11T11:45:44;101694.19;;;20.71;18.33
8575;BME280;4325;42.520;27.448;2024-01-11T11:48:49;101671.31;;;21.66;18.26
8575;BME280;4325;42.520;27.448;2024-01-11T11:51:19;101670.44;;;24.66;16.63
8575;BME280;4325;42.520;27.448;2024-01-11T11:53:47;101671.13;;;25.41;15.33
8575;BME280;4325;42.520;27.448;2024-01-11T11:56:17;101657.63;;;25.67;15.48
8575;BME280;4325;42.520;27.448;2024-01-11T11:58:44;101656.81;;;26.43;15.39
8575;BME280;4325;42.520;27.448;2024-01-11T12:01:12;101662.41;;;24.98;15.11
8575;BME280;4325;42.520;27.448;2024-01-11T12:03:41;101655.97;;;21.47;17.03
8575;BME280;4325;42.520;27.448;2024-01-11T12:06:15;101654.19;;;21.90;17.61
8575;BME280;4325;42.520;27.448;2024-01-11T12:08:44;101644.41;;;24.33;16.29
8575;BME280;4325;42.520;27.448;2024-01-11T12:11:13;101634.53;;;25.98;15.42
8575;BME280;4325;42.520;27.448;2024-01-11T12:13:41;101635.03;;;24.82;16.03
8575;BME280;4325;42.520;27.448;2024-01-11T12:16:10;101633.38;;;25.26;16.09
8575;BME280;4325;42.520;27.448;2024-01-11T12:18:37;101631.44;;;24.82;16.66
8575;BME280;4325;42.520;27.448;2024-01-11T12:21:05;101620.06;;;22.62;17.93
8575;BME280;4325;42.520;27.448;2024-01-11T12:23:33;101618.28;;;22.14;18.17
8575;BME280;4325;42.520;27.448;2024-01-11T12:26:02;101618.44;;;21.92;18.43
8575;BME280;4325;42.520;27.448;2024-01-11T12:28:31;101602.66;;;22.30;18.67
8575;BME280;4325;42.520;27.448;2024-01-11T12:30:59;101597.72;;;23.17;17.46
8575;BME280;4325;42.520;27.448;2024-01-11T12:33:26;101599.94;;;24.32;17.16
8575;BME280;4325;42.520;27.448;2024-01-11T12:35:54;101589.41;;;25.91;15.61
8575;BME280;4325;42.520;27.448;2024-01-11T12:38:21;101583.72;;;27.80;14.97
8575;BME280;4325;42.520;27.448;2024-01-11T12:40:48;101588.38;;;28.64;13.92
8575;BME280;4325;42.520;27.448;2024-01-11T12:43:17;101581.25;;;27.28;14.51
8575;BME280;4325;42.520;27.448;2024-01-11T12:45:45;101579.88;;;26.19;15.10
8575;BME280;4325;42.520;27.448;2024-01-11T12:48:12;101575.88;;;24.84;15.91
8575;BME280;4325;42.520;27.448;2024-01-11T12:50:42;101577.69;;;23.94;15.92
8575;BME280;4325;42.520;27.448;2024-01-11T12:53:10;101558.00;;;22.65;16.70
8575;BME280;4325;42.520;27.448;2024-01-11T12:55:43;101571.84;;;21.28;17.84
8575;BME280;4325;42.520;27.448;2024-01-11T12:58:10;101569.25;;;21.40;18.00
8575;BME280;4325;42.520;27.448;2024-01-11T13:00:39;101573.44;;;22.36;17.18
8575;BME280;4325;42.520;27.448;2024-01-11T13:03:06;101554.44;;;21.87;18.08
8575;BME280;4325;42.520;27.448;2024-01-11T13:05:35;101551.78;;;21.82;17.40